Aérodrome :
LOGIN :

S'inscrire | Disclaimer

   EN    FR    IT 

 










Légende :    VFR   VFR Marginal   IFR   IFR Intensif   IFR Très Intensif
Visi : 
Plafond : 
>= 8 km
>= 3000ft
5 à 8 km
1000 à 3000 ft
1500m à 5 km
500 à 1000 ft
800 à 1500m
200 à 500 ft
< 800m
< 200 ft
Symboles :   Orages  Brouillard  Fortes neiges  Fortes précipitations  Vent > 20 kt
SIGMETs :   Divers  Orages  Givrage  Turbulence  Onde Orograph.  Cendres Volcan.






- Altitude de l'aérodrome : 1071 ft
- Code IATA : LWO


UKLL - L'viv

DERNIER METAR :
  • 050630Z 20006MPS 9999 SCT040CB 17/14 Q1001 R13/290055 NOSIG

METARs EXPIRÉS :
  • 050600Z 19006MPS 9999 SCT043CB 18/13 Q1001 R13/290055 NOSIG
  • 050530Z 19006MPS 9999 SCT043CB 16/14 Q1001 R13/290055 NOSIG
  • 050500Z 18005MPS 9999 -SHRA SCT043CB 15/14 Q1001 R13/290055 NOSIG
  • 050430Z 19005MPS 9999 -SHRA SCT043CB 15/14 Q1001 R13/290055 NOSIG
  • 050400Z 18004MPS 9999 -SHRA SCT043CB 15/13 Q1000 R13/290055 NOSIG

TAF TAF UKLL
Valide du 05 à 06h jusqu'au 06 à 06h UTC


050507Z 0506/0606 17004MPS 9999 BKN020
TEMPO 0506/0524 20008G14MPS 3000 -SHRA BKN007 BKN020CB
BECMG 0600/0602 VRB01MPS 2100 BR BKN007
TEMPO 0602/0606 19004MPS -SHRA BKN005 BKN020CB



MET'MAP, la Météo Aéronautique d'un coup d'oeil ! - Copyright ORBIFLY Décembre 2007 - Disclaimer

ORBIFLY MET'MAP TEAM :

Programmation & Développement : Alexandra Zaïnal
Sur une idée originale de : Baudouin d'Aumeries
Assistance à la programmation : Marc-Olivier Méhu
Soutien technique & logistique : Manuel Goepfert

Contact : metmap@orbifly.com




SOURCES & CREDITS :

   NOAA